createdAt,value
2018-09-08T00:00:01.889Z,9.85
2018-09-08T00:05:01.154Z,9.8
2018-09-08T00:10:01.480Z,9.76
2018-09-08T00:15:01.844Z,9.72
2018-09-08T00:20:01.252Z,9.66
2018-09-08T00:25:01.547Z,9.63
2018-09-08T00:30:01.877Z,9.57
2018-09-08T00:35:01.294Z,9.51
2018-09-08T00:40:01.733Z,9.47
2018-09-08T00:45:02.127Z,9.46
2018-09-08T00:50:01.445Z,9.45
2018-09-08T00:55:01.983Z,9.38
2018-09-08T01:00:01.451Z,9.36
2018-09-08T01:05:01.816Z,9.42
2018-09-08T01:10:01.090Z,9.46
2018-09-08T01:15:01.655Z,9.52
2018-09-08T01:20:02.014Z,9.75
2018-09-08T01:25:01.454Z,9.96
2018-09-08T01:30:01.807Z,10.14
2018-09-08T01:35:01.112Z,10.18
2018-09-08T01:40:01.363Z,10.23
2018-09-08T01:45:01.621Z,10.22
2018-09-08T01:50:01.907Z,10.15
2018-09-08T01:55:01.300Z,10.1
2018-09-08T02:00:01.555Z,10.08
2018-09-08T02:05:01.944Z,10
2018-09-08T02:10:01.369Z,9.97
2018-09-08T02:15:01.668Z,10.01
2018-09-08T02:20:02.024Z,10.1
2018-09-08T02:25:01.571Z,10.13
2018-09-08T02:30:02.039Z,10.19
2018-09-08T02:35:01.451Z,10.14
2018-09-08T02:40:01.206Z,10.08
2018-09-08T02:45:01.442Z,10
2018-09-08T02:50:01.826Z,9.93
2018-09-08T02:55:01.130Z,9.82
2018-09-08T03:00:01.362Z,9.61
2018-09-08T03:05:01.783Z,9.51
2018-09-08T03:10:01.174Z,9.39
2018-09-08T03:15:01.486Z,9.32
2018-09-08T03:20:01.813Z,9.22
2018-09-08T03:25:01.163Z,9.21
2018-09-08T03:30:01.438Z,9.21
2018-09-08T03:35:01.860Z,9.25
2018-09-08T03:40:01.219Z,9.34
2018-09-08T03:45:01.492Z,9.38
2018-09-08T03:50:01.859Z,9.45
2018-09-08T03:55:01.215Z,9.45
2018-09-08T04:00:01.528Z,9.42
2018-09-08T04:05:01.881Z,9.38
2018-09-08T04:10:01.237Z,9.4
2018-09-08T04:15:01.536Z,9.41
2018-09-08T04:20:01.871Z,9.38
2018-09-08T04:25:01.325Z,9.31
2018-09-08T04:30:01.724Z,9.22
2018-09-08T04:35:02.115Z,9.15
2018-09-08T04:40:01.327Z,9.1
2018-09-08T04:45:01.650Z,9.05
2018-09-08T04:50:01.956Z,9.06
2018-09-08T04:55:01.315Z,9.04
2018-09-08T05:00:01.594Z,9.07
2018-09-08T05:05:02.014Z,9.04
2018-09-08T05:10:01.395Z,9.03
2018-09-08T05:15:01.702Z,8.97
2018-09-08T05:20:02.008Z,8.97
2018-09-08T05:25:01.374Z,8.98
2018-09-08T05:30:01.653Z,8.98
2018-09-08T05:35:02.085Z,9.05
2018-09-08T05:40:01.786Z,9.1
2018-09-08T05:45:02.089Z,9.22
2018-09-08T05:50:01.334Z,9.33
2018-09-08T05:55:01.637Z,9.53
2018-09-08T06:00:01.925Z,9.78
2018-09-08T06:05:01.171Z,9.95
2018-09-08T06:10:01.487Z,10.16
2018-09-08T06:15:01.702Z,10.39
2018-09-08T06:20:02.068Z,10.62
2018-09-08T06:25:01.483Z,10.81
2018-09-08T06:30:01.800Z,10.94
2018-09-08T06:35:01.136Z,11.14
2018-09-08T06:40:01.613Z,11.33
2018-09-08T06:45:01.964Z,11.47
2018-09-08T06:50:01.835Z,11.67
2018-09-08T06:55:01.547Z,11.88
2018-09-08T07:00:01.862Z,12.11
2018-09-08T07:05:01.145Z,12.2
2018-09-08T07:10:01.432Z,12.49
2018-09-08T07:15:01.833Z,12.73
2018-09-08T07:20:01.511Z,12.88
2018-09-08T07:25:02.080Z,13.03
2018-09-08T07:30:01.548Z,13.14
2018-09-08T07:35:02.034Z,13.39
2018-09-08T07:40:01.425Z,13.94
2018-09-08T07:45:01.800Z,14.15
2018-09-08T07:50:01.239Z,14.41
2018-09-08T07:55:01.532Z,14.42
2018-09-08T08:00:01.769Z,15.03
2018-09-08T08:05:02.148Z,15.65
2018-09-08T08:10:01.552Z,15.8
2018-09-08T08:15:01.873Z,15.93
2018-09-08T08:20:01.129Z,16.24
2018-09-08T08:25:01.514Z,16.75
2018-09-08T08:30:01.784Z,16.78
2018-09-08T08:35:01.157Z,16.88
2018-09-08T08:40:01.530Z,16.98
2018-09-08T08:45:01.799Z,17.14
2018-09-08T08:50:02.224Z,17.22
2018-09-08T08:55:01.648Z,17.36
2018-09-08T09:00:01.943Z,17.18
2018-09-08T09:05:01.214Z,17.39
2018-09-08T09:10:01.631Z,17.2
2018-09-08T09:15:02.326Z,17.38
2018-09-08T09:20:01.124Z,17.56
2018-09-08T09:25:01.456Z,17.88
2018-09-08T09:30:01.131Z,18.21
2018-09-08T09:35:01.401Z,18.36
2018-09-08T09:40:01.746Z,18.43
2018-09-08T09:45:01.135Z,17.97
2018-09-08T09:50:01.417Z,18.32
2018-09-08T09:55:01.782Z,18.11
2018-09-08T10:00:02.047Z,17.93
2018-09-08T10:05:01.310Z,18.13
2018-09-08T10:35:01.122Z,19.61
2018-09-08T10:40:01.389Z,19.66
2018-09-08T10:45:01.662Z,19.22
2018-09-08T10:50:02.027Z,19.27
2018-09-08T10:55:01.522Z,19.3
2018-09-08T11:00:01.780Z,19.5
2018-09-08T11:05:02.091Z,19.44
2018-09-08T11:10:01.363Z,19.42
2018-09-08T11:15:01.655Z,19.58
2018-09-08T11:20:02.037Z,19.47
2018-09-08T11:25:01.442Z,19.4
2018-09-08T11:30:01.837Z,19.25
2018-09-08T11:35:01.109Z,19.56
2018-09-08T11:40:01.392Z,19.35
2018-09-08T11:45:01.666Z,19.31
2018-09-08T11:50:02.051Z,19.33
2018-09-08T11:55:01.472Z,19.6
2018-09-08T12:00:01.737Z,19.83
2018-09-08T12:05:02.117Z,19.99
2018-09-08T12:10:01.542Z,20.05
2018-09-08T12:15:01.816Z,19.81
2018-09-08T12:20:01.094Z,19.79
2018-09-08T12:25:01.502Z,19.76
2018-09-08T12:30:01.864Z,19.75
2018-09-08T12:35:01.138Z,19.9
2018-09-08T12:40:01.417Z,19.98
2018-09-08T12:45:01.757Z,20.1
2018-09-08T12:50:02.162Z,19.56
2018-09-08T12:55:01.570Z,19.65
2018-09-08T13:00:01.843Z,19.65
2018-09-08T13:05:01.135Z,19.95
2018-09-08T13:10:01.415Z,19.92
2018-09-08T13:15:01.715Z,19.87
2018-09-08T13:20:02.118Z,20
2018-09-08T13:25:01.557Z,20.18
2018-09-08T13:30:01.879Z,20.12
2018-09-08T13:35:01.145Z,20.13
2018-09-08T13:40:01.536Z,20.27
2018-09-08T13:45:02.024Z,20.34
2018-09-08T13:50:01.263Z,20.36
2018-09-08T13:55:01.532Z,20.34
2018-09-08T14:00:01.795Z,20.39
2018-09-08T14:05:01.158Z,20.47
2018-09-08T14:10:01.468Z,20.42
2018-09-08T14:15:01.743Z,20.45
2018-09-08T14:20:02.124Z,20.49
2018-09-08T14:25:01.581Z,20.53
2018-09-08T14:30:01.897Z,20.54
2018-09-08T14:35:01.194Z,20.55
2018-09-08T14:40:01.512Z,20.61
2018-09-08T14:45:01.739Z,20.77
2018-09-08T14:50:02.117Z,20.74
2018-09-08T14:55:01.593Z,20.71
2018-09-08T15:00:01.900Z,20.69
2018-09-08T15:05:01.331Z,20.64
2018-09-08T15:10:02.039Z,20.73
2018-09-08T15:15:01.312Z,20.66
2018-09-08T15:20:01.736Z,20.78
2018-09-08T15:25:01.110Z,20.79
2018-09-08T15:30:01.356Z,20.79
2018-09-08T15:35:01.777Z,20.79
2018-09-08T15:40:01.312Z,20.69
2018-09-08T15:45:01.710Z,20.41
2018-09-08T15:50:02.117Z,20.26
2018-09-08T15:55:01.512Z,20.06
2018-09-08T16:00:01.806Z,19.94
2018-09-08T16:05:01.143Z,19.87
2018-09-08T16:10:01.471Z,19.85
2018-09-08T16:15:01.848Z,19.82
2018-09-08T16:20:01.139Z,19.86
2018-09-08T16:25:01.455Z,19.79
2018-09-08T16:30:01.752Z,19.75
2018-09-08T16:35:01.120Z,19.68
2018-09-08T16:40:01.386Z,19.52
2018-09-08T16:45:01.731Z,19.37
2018-09-08T16:50:02.139Z,19.12
2018-09-08T16:55:01.739Z,18.98
2018-09-08T17:00:02.036Z,18.82
2018-09-08T17:05:01.340Z,18.64
2018-09-08T17:10:02.009Z,18.48
2018-09-08T17:15:01.281Z,18.49
2018-09-08T17:20:01.649Z,18.57
2018-09-08T17:25:02.044Z,18.46
2018-09-08T17:30:01.334Z,18.36
2018-09-08T17:35:01.714Z,18.19
2018-09-08T17:40:02.059Z,18.03
2018-09-08T17:45:01.363Z,17.8
2018-09-08T17:50:01.760Z,17.55
2018-09-08T17:55:01.160Z,17.32
2018-09-08T18:00:01.448Z,16.99
2018-09-08T18:05:01.910Z,16.75
2018-09-08T18:10:01.286Z,16.58
2018-09-08T18:15:01.543Z,16.39
2018-09-08T18:20:01.889Z,16.24
2018-09-08T18:25:01.298Z,16.19
2018-09-08T18:30:01.586Z,16.05
2018-09-08T18:35:01.991Z,15.91
2018-09-08T18:40:01.384Z,15.84
2018-09-08T18:45:01.700Z,15.77
2018-09-08T18:50:02.051Z,15.69
2018-09-08T18:55:01.451Z,15.6
2018-09-08T19:00:01.771Z,15.52
2018-09-08T19:05:02.137Z,15.34
2018-09-08T19:10:01.532Z,15.24
2018-09-08T19:15:01.858Z,15.18
2018-09-08T19:20:01.349Z,15.3
2018-09-08T19:25:01.361Z,15.43
2018-09-08T19:30:01.774Z,15.41
2018-09-08T19:35:01.111Z,15.33
2018-09-08T19:40:01.415Z,15.27
2018-09-08T19:45:01.732Z,15.21
2018-09-08T19:50:02.082Z,15.36
2018-09-08T19:55:01.574Z,15.29
2018-09-08T20:00:01.224Z,15.17
2018-09-08T20:05:01.573Z,15.17
2018-09-08T20:10:01.947Z,15.16
2018-09-08T20:15:01.599Z,15.01
2018-09-08T20:20:01.965Z,14.85
2018-09-08T20:25:01.295Z,14.92
2018-09-08T20:30:01.622Z,14.68
2018-09-08T20:35:02.125Z,14.43
2018-09-08T20:40:01.752Z,14.29
2018-09-08T20:45:02.092Z,14.15
2018-09-08T20:50:01.384Z,14.1
2018-09-08T20:55:01.759Z,14.14
2018-09-08T21:00:02.068Z,14.07
2018-09-08T21:05:01.375Z,14.28
2018-09-08T21:10:01.749Z,14.25
2018-09-08T21:15:02.084Z,14.22
2018-09-08T21:20:01.448Z,14.14
2018-09-08T21:25:01.861Z,14.13
2018-09-08T21:30:01.210Z,14.01
2018-09-08T21:35:01.693Z,13.94
2018-09-08T21:40:01.095Z,13.89
2018-09-08T21:45:01.362Z,13.85
2018-09-08T21:50:01.755Z,13.81
2018-09-08T21:55:01.143Z,13.79
2018-09-08T22:00:01.390Z,13.73
2018-09-08T22:05:01.801Z,13.76
2018-09-08T22:10:01.182Z,13.88
2018-09-08T22:15:01.474Z,14.03
2018-09-08T22:20:01.884Z,14.01
2018-09-08T22:25:01.217Z,13.98
2018-09-08T22:30:01.518Z,13.98
2018-09-08T22:35:01.957Z,13.93
2018-09-08T22:40:01.318Z,13.81
2018-09-08T22:45:01.615Z,13.64
2018-09-08T22:50:01.996Z,13.62
2018-09-08T22:55:01.458Z,13.49
2018-09-08T23:00:01.764Z,13.44
2018-09-08T23:05:01.129Z,13.4
2018-09-08T23:10:01.452Z,13.35
2018-09-08T23:15:01.802Z,13.48
2018-09-08T23:20:01.137Z,13.64
2018-09-08T23:25:01.469Z,13.68
2018-09-08T23:30:01.795Z,13.73
2018-09-08T23:35:01.106Z,13.75
2018-09-08T23:40:01.385Z,13.73
2018-09-08T23:45:01.745Z,13.65
2018-09-08T23:50:02.116Z,13.58
2018-09-08T23:55:01.549Z,13.54
